Time;durP1;ratioP1;P1;durP2;ratioP2;P2;SDS_P1;SDS_P2;PMS_P1;PMS_P2;Temp;Humidity;BMP_temperature;BMP_pressure;BME280_temperature;BME280_humidity;BME280_pressure;Samples;Min_cycle;Max_cycle;Signal;HPM_P1;HPM_P2
2023/10/26 00:01:54;;;;;;;;;;;;;;;9.27;100.00;99554.97;5092378;28;19999;-92
2023/10/26 00:04:22;;;;;;;;;;;;;;;9.24;100.00;99557.66;5092325;28;20272;-92
2023/10/26 00:06:48;;;;;;;;;;;;;;;9.23;100.00;99560.31;5091809;28;19946;-92
2023/10/26 00:09:13;;;;;;;;;;;;;;;9.18;100.00;99566.53;5092731;28;19916;-92
2023/10/26 00:11:38;;;;;;;;;;;;;;;9.21;100.00;99564.72;5092409;28;19913;-93
2023/10/26 00:17:07;;;;;;;;;;;;;;;9.14;100.00;99569.25;5093519;28;19930;-93
2023/10/26 00:22:38;;;;;;;;;;;;;;;9.09;100.00;99577.19;5093474;28;19997;-93
2023/10/26 00:31:12;;;;;;;;;;;;;;;9.04;100.00;99597.38;5097223;28;19919;-93
2023/10/26 00:33:39;;;;;;;;;;;;;;;9.07;100.00;99604.28;5095858;28;19918;-93
2023/10/26 00:36:05;;;;;;;;;;;;;;;9.06;100.00;99603.41;5096160;28;19916;-93
2023/10/26 00:38:30;;;;;;;;;;;;;;;9.06;100.00;99599.97;5095876;28;20303;-92
2023/10/26 00:40:56;;;;;;;;;;;;;;;9.07;100.00;99601.69;5095852;28;20023;-93
2023/10/26 00:43:25;;;;;;;;;;;;;;;9.06;100.00;99599.97;5112840;28;20426;-93
2023/10/26 00:45:53;;;;;;;;;;;;;;;9.04;100.00;99600.00;5095633;28;19916;-93
2023/10/26 00:48:19;;;;;;;;;;;;;;;9.06;100.00;99608.63;5078408;28;19958;-93
2023/10/26 00:50:44;;;;;;;;;;;;;;;9.05;100.00;99604.34;5097524;28;19912;-93
2023/10/26 00:53:10;;;;;;;;;;;;;;;9.05;100.00;99604.34;5095532;28;20011;-93
2023/10/26 00:58:39;;;;;;;;;;;;;;;9.06;100.00;99610.41;5093225;28;19953;-93
2023/10/26 01:01:05;;;;;;;;;;;;;;;9.01;100.00;99614.00;5078279;28;19924;-93
2023/10/26 01:03:30;;;;;;;;;;;;;;;9.03;100.00;99621.78;5078747;28;19920;-93
2023/10/26 01:05:56;;;;;;;;;;;;;;;9.00;100.00;99619.25;5078279;28;19916;-93
2023/10/26 01:08:23;;;;;;;;;;;;;;;9.00;100.00;99625.34;5079106;28;20272;-92
2023/10/26 01:10:51;;;;;;;;;;;;;;;8.98;100.00;99621.91;5078954;28;19912;-92
2023/10/26 01:13:17;;;;;;;;;;;;;;;9.00;100.00;99627.09;5077952;28;20436;-93
2023/10/26 01:15:43;;;;;;;;;;;;;;;8.97;100.00;99638.47;5078252;28;19920;-92
2023/10/26 01:18:10;;;;;;;;;;;;;;;8.96;100.00;99634.13;5078271;28;20292;-92
2023/10/26 01:20:42;;;;;;;;;;;;;;;8.96;100.00;99636.75;5062534;28;19916;-93
2023/10/26 01:23:08;;;;;;;;;;;;;;;8.93;100.00;99639.44;5085895;28;19916;-93
2023/10/26 01:25:39;;;;;;;;;;;;;;;8.93;100.00;99649.88;5098085;28;20266;-93
2023/10/26 01:28:06;;;;;;;;;;;;;;;8.89;100.00;99643.03;5098957;28;20201;-93
2023/10/26 01:30:32;;;;;;;;;;;;;;;8.89;100.00;99647.41;5117082;28;19918;-93
2023/10/26 01:32:58;;;;;;;;;;;;;;;8.87;100.00;99636.97;5097890;28;20651;-93
2023/10/26 01:38:29;;;;;;;;;;;;;;;8.80;100.00;99630.19;5116632;28;19964;-93
2023/10/26 01:40:57;;;;;;;;;;;;;;;8.77;100.00;99638.09;5097320;28;19912;-92
2023/10/26 01:43:24;;;;;;;;;;;;;;;8.72;100.00;99634.72;5098070;28;20313;-93
2023/10/26 01:48:54;;;;;;;;;;;;;;;8.58;100.00;99637.69;5116703;28;20370;-93
2023/10/26 01:54:25;;;;;;;;;;;;;;;8.44;100.00;99632.72;5116429;28;20363;-93
2023/10/26 01:56:50;;;;;;;;;;;;;;;8.40;100.00;99633.69;5081631;28;19965;-93
2023/10/26 01:59:16;;;;;;;;;;;;;;;8.35;100.00;99635.53;5098600;28;19912;-93
2023/10/26 02:01:41;;;;;;;;;;;;;;;8.32;100.00;99642.53;5098235;28;19912;-93
2023/10/26 02:04:06;;;;;;;;;;;;;;;8.25;100.00;99630.53;5098750;28;19918;-93
2023/10/26 02:06:31;;;;;;;;;;;;;;;8.20;100.00;99637.56;5098726;28;20216;-93
2023/10/26 02:08:57;;;;;;;;;;;;;;;8.15;100.00;99632.47;5099211;28;20356;-93
2023/10/26 02:11:22;;;;;;;;;;;;;;;8.11;100.00;99635.19;5098325;28;19911;-92
2023/10/26 02:13:48;;;;;;;;;;;;;;;8.05;100.00;99633.56;5098694;28;19920;-93
2023/10/26 02:16:16;;;;;;;;;;;;;;;8.02;100.00;99630.16;5098482;28;20318;-92
2023/10/26 02:18:43;;;;;;;;;;;;;;;7.96;100.00;99626.78;5115725;28;19928;-92
2023/10/26 02:24:37;;;;;;;;;;;;;;;7.87;100.00;99619.13;5116285;28;20695;-92
2023/10/26 02:27:05;;;;;;;;;;;;;;;7.83;100.00;99625.31;5098772;28;19920;-93
2023/10/26 02:29:30;;;;;;;;;;;;;;;7.78;100.00;99630.59;5098181;28;19918;-92
2023/10/26 02:31:58;;;;;;;;;;;;;;;7.76;100.00;99621.13;5082189;28;20394;-93
2023/10/26 02:34:23;;;;;;;;;;;;;;;7.74;100.00;99622.88;5081228;28;19924;-92
2023/10/26 02:36:52;;;;;;;;;;;;;;;7.69;100.00;99624.72;5098300;28;20410;-92
2023/10/26 02:39:17;;;;;;;;;;;;;;;7.67;100.00;99629.09;5097614;28;19911;-93
2023/10/26 02:41:45;;;;;;;;;;;;;;;7.64;100.00;99622.19;5097519;28;19960;-92
2023/10/26 02:44:10;;;;;;;;;;;;;;;7.63;100.00;99626.56;5080962;28;19915;-93
2023/10/26 02:46:35;;;;;;;;;;;;;;;7.59;100.00;99624.03;5097007;28;19916;-93
2023/10/26 02:49:01;;;;;;;;;;;;;;;7.55;100.00;99623.22;5097915;28;20351;-92
2023/10/26 02:54:29;;;;;;;;;;;;;;;7.44;100.00;99635.59;5115489;28;19971;-93
2023/10/26 02:56:57;;;;;;;;;;;;;;;7.43;100.00;99624.31;5097481;28;19924;-93
2023/10/26 02:59:22;;;;;;;;;;;;;;;7.41;100.00;99626.13;5115755;28;19918;-92
2023/10/26 03:01:48;;;;;;;;;;;;;;;7.40;100.00;99629.59;5097378;28;19915;-93
2023/10/26 03:04:13;;;;;;;;;;;;;;;7.41;100.00;99631.31;5097783;28;20011;-93
2023/10/26 03:06:39;;;;;;;;;;;;;;;7.43;100.00;99633.91;5097253;28;20077;-93
2023/10/26 03:09:05;;;;;;;;;;;;;;;7.42;100.00;99632.16;5080997;28;19922;-92
2023/10/26 03:11:31;;;;;;;;;;;;;;;7.42;100.00;99634.78;5097323;28;19912;-93
2023/10/26 03:13:58;;;;;;;;;;;;;;;7.39;100.00;99629.63;5097925;28;19919;-93
2023/10/26 03:16:24;;;;;;;;;;;;;;;7.34;100.00;99623.63;5098284;28;20287;-93
2023/10/26 03:18:49;;;;;;;;;;;;;;;7.28;100.00;99619.38;5098886;28;19912;-93
2023/10/26 03:24:17;;;;;;;;;;;;;;;7.18;100.00;99607.41;5116021;28;19923;-92
2023/10/26 03:26:43;;;;;;;;;;;;;;;7.14;100.00;99611.81;5097929;28;19916;-93
2023/10/26 03:29:08;;;;;;;;;;;;;;;7.10;100.00;99605.78;5098508;28;19915;-93
2023/10/26 03:31:36;;;;;;;;;;;;;;;7.08;100.00;99615.41;5097570;28;19919;-93
2023/10/26 03:34:02;;;;;;;;;;;;;;;7.08;100.00;99617.13;5081292;28;20308;-92
2023/10/26 03:36:28;;;;;;;;;;;;;;;7.05;100.00;99612.84;5096726;28;19916;-93
2023/10/26 03:38:53;;;;;;;;;;;;;;;7.02;100.00;99622.44;5097714;28;19957;-92
2023/10/26 03:41:19;;;;;;;;;;;;;;;6.99;100.00;99615.53;5098082;28;19912;-93
2023/10/26 03:43:45;;;;;;;;;;;;;;;6.93;100.00;99608.69;5097639;28;19977;-93
2023/10/26 03:46:13;;;;;;;;;;;;;;;6.89;100.00;99611.38;5098265;28;19969;-93
2023/10/26 03:48:38;;;;;;;;;;;;;;;6.84;100.00;99618.38;5081081;28;19920;-93
2023/10/26 03:54:09;;;;;;;;;;;;;;;6.75;100.00;99614.19;5115503;28;19919;-92
2023/10/26 03:56:34;;;;;;;;;;;;;;;6.72;100.00;99620.31;5095881;28;20029;-92
2023/10/26 03:58:59;;;;;;;;;;;;;;;6.66;100.00;99607.38;5096865;28;19919;-92
2023/10/26 04:01:25;;;;;;;;;;;;;;;6.62;100.00;99610.91;5096608;28;19919;-92
2023/10/26 04:03:53;;;;;;;;;;;;;;;6.62;100.00;99607.47;5097905;28;20382;-93
2023/10/26 04:06:20;;;;;;;;;;;;;;;6.58;100.00;99597.09;5084281;28;19924;-92
2023/10/26 04:08:46;;;;;;;;;;;;;;;6.56;100.00;99598.84;5100880;28;19961;-93
2023/10/26 04:11:17;;;;;;;;;;;;;;;6.55;100.00;99597.16;5100945;28;19945;-92
2023/10/26 04:13:49;;;;;;;;;;;;;;;6.53;100.00;99593.69;5100963;28;19920;-92
2023/10/26 04:16:15;;;;;;;;;;;;;;;6.52;100.00;99605.00;5100878;28;20025;-92
2023/10/26 04:18:40;;;;;;;;;;;;;;;6.51;100.00;99599.84;5100468;28;19951;-93
2023/10/26 04:21:05;;;;;;;;;;;;;;;6.49;100.00;99599.81;5100961;28;20322;-92
2023/10/26 04:23:31;;;;;;;;;;;;;;;6.47;100.00;99588.59;5100743;28;20002;-92
2023/10/26 04:25:56;;;;;;;;;;;;;;;6.38;100.00;99588.75;5100804;28;19916;-93
2023/10/26 04:28:22;;;;;;;;;;;;;;;6.33;100.00;99595.75;5100686;28;19912;-92
2023/10/26 04:30:48;;;;;;;;;;;;;;;6.28;100.00;99585.41;5083693;28;19920;-92
2023/10/26 04:33:14;;;;;;;;;;;;;;;6.29;100.00;99599.25;5100077;28;20014;-92
2023/10/26 04:35:42;;;;;;;;;;;;;;;6.29;100.00;99588.84;5100143;28;20379;-92
2023/10/26 04:38:08;;;;;;;;;;;;;;;6.27;100.00;99593.22;5083342;28;20022;-93
2023/10/26 04:40:34;;;;;;;;;;;;;;;6.29;100.00;99605.31;5100494;28;19980;-92
2023/10/26 04:42:59;;;;;;;;;;;;;;;6.26;100.00;99599.31;5100234;28;19918;-92
2023/10/26 04:45:25;;;;;;;;;;;;;;;6.25;100.00;99595.84;5099747;28;20379;-93
2023/10/26 04:47:50;;;;;;;;;;;;;;;6.22;100.00;99588.06;5099993;28;20394;-92
2023/10/26 04:50:15;;;;;;;;;;;;;;;6.17;100.00;99590.75;5099714;28;19912;-92
2023/10/26 04:52:41;;;;;;;;;;;;;;;6.10;100.00;99593.47;5099409;28;19912;-93
2023/10/26 04:58:12;;;;;;;;;;;;;;;6.03;100.00;99587.47;5117527;28;19927;-92
2023/10/26 05:00:37;;;;;;;;;;;;;;;5.99;100.00;99596.19;5118164;28;20414;-93
2023/10/26 05:03:03;;;;;;;;;;;;;;;6.00;100.00;99590.13;5109652;28;19912;-92
2023/10/26 05:08:31;;;;;;;;;;;;;;;5.96;100.00;99591.88;5116655;28;19918;-92
2023/10/26 05:10:59;;;;;;;;;;;;;;;5.96;100.00;99591.88;5081443;28;19927;-92
2023/10/26 05:13:25;;;;;;;;;;;;;;;6.00;100.00;99587.53;5098224;28;19918;-92
2023/10/26 05:16:09;;;;;;;;;;;;;;;6.02;100.00;99585.75;5098658;28;19912;-92
2023/10/26 05:18:37;;;;;;;;;;;;;;;6.06;100.00;99597.81;5117692;28;20341;-92
2023/10/26 05:21:05;;;;;;;;;;;;;;;6.09;100.00;99600.38;5100636;28;20223;-92
2023/10/26 05:23:30;;;;;;;;;;;;;;;6.13;100.00;99590.81;5099401;28;19912;-93
2023/10/26 05:25:58;;;;;;;;;;;;;;;6.15;100.00;99592.53;5082274;28;19943;-91
2023/10/26 05:28:23;;;;;;;;;;;;;;;6.18;100.00;99583.81;5098234;28;19919;-92
2023/10/26 05:30:59;;;;;;;;;;;;;;;6.20;100.00;99582.91;5117548;28;19916;-93
2023/10/26 05:33:24;;;;;;;;;;;;;;;6.24;100.00;99583.72;5081884;28;19915;-92
2023/10/26 05:36:11;;;;;;;;;;;;;;;6.28;100.00;99577.59;5097781;28;20002;-91
2023/10/26 05:38:36;;;;;;;;;;;;;;;6.31;100.00;99576.72;5114500;28;19912;-91
2023/10/26 05:41:01;;;;;;;;;;;;;;;6.35;100.00;99583.56;5097742;28;19965;-92
2023/10/26 05:43:26;;;;;;;;;;;;;;;6.38;100.00;99586.13;5097677;28;20340;-92
2023/10/26 05:45:52;;;;;;;;;;;;;;;6.41;100.00;99592.16;5097281;28;19916;-92
2023/10/26 05:48:19;;;;;;;;;;;;;;;6.43;100.00;99579.09;5096847;28;19916;-92
2023/10/26 05:50:45;;;;;;;;;;;;;;;6.46;100.00;99580.81;5097518;28;19923;-93
2023/10/26 05:53:11;;;;;;;;;;;;;;;6.48;100.00;99579.03;5097222;28;19954;-92
2023/10/26 05:55:36;;;;;;;;;;;;;;;6.49;100.00;99581.59;5098298;28;19937;-92
2023/10/26 05:58:02;;;;;;;;;;;;;;;6.53;100.00;99582.44;5096641;28;19945;-93
2023/10/26 06:00:28;;;;;;;;;;;;;;;6.55;100.00;99585.84;5096935;28;19973;-92
2023/10/26 06:02:56;;;;;;;;;;;;;;;6.55;100.00;99581.53;5096971;28;20274;-92
2023/10/26 06:05:21;;;;;;;;;;;;;;;6.59;100.00;99579.72;5080075;28;19916;-93
2023/10/26 06:07:52;;;;;;;;;;;;;;;6.61;100.00;99577.09;5096785;28;20209;-91
2023/10/26 06:10:21;;;;;;;;;;;;;;;6.62;100.00;99581.44;5097152;28;19946;-92
2023/10/26 06:12:49;;;;;;;;;;;;;;;6.64;100.00;99584.84;5099385;28;19994;-92
2023/10/26 06:15:26;;;;;;;;;;;;;;;6.62;100.00;99574.47;5084893;28;19951;-92
2023/10/26 06:17:54;;;;;;;;;;;;;;;6.60;100.00;99563.22;5084611;28;20018;-92
2023/10/26 06:20:22;;;;;;;;;;;;;;;6.56;100.00;99562.41;5097369;28;20327;-92
2023/10/26 06:22:55;;;;;;;;;;;;;;;6.54;100.00;99558.97;5099311;28;20449;-91
2023/10/26 06:25:28;;;;;;;;;;;;;;;6.53;100.00;99570.25;5099715;28;20251;-91
2023/10/26 06:28:19;;;;;;;;;;;;;;;6.54;100.00;99581.56;5099020;28;20033;-91
2023/10/26 06:33:48;;;;;;;;;;;;;;;;;;;;;
2023/10/26 06:36:32;;;;;;;;;;;;;;;6.61;100.00;99566.69;5021413;28;19917;-92
2023/10/26 06:39:02;;;;;;;;;;;;;;;6.64;100.00;99579.66;5078238;28;19916;-93
2023/10/26 06:41:51;;;;;;;;;;;;;;;;;;;;;
2023/10/26 06:47:38;;;;;;;;;;;;;;;6.66;100.00;99583.09;5056679;28;19923;-92
2023/10/26 06:53:18;;;;;;;;;;;;;;;6.71;100.00;99586.47;5121010;28;20271;-92
2023/10/26 06:59:09;;;;;;;;;;;;;;;6.73;100.00;99585.56;5060768;28;19927;-92
2023/10/26 07:01:55;;;;;;;;;;;;;;;6.73;100.00;99576.91;5101188;28;19916;-93
2023/10/26 07:04:26;;;;;;;;;;;;;;;6.77;100.00;99575.97;5100907;28;19911;-93
2023/10/26 07:07:04;;;;;;;;;;;;;;;;;;;;;
2023/10/26 07:09:32;;;;;;;;;;;;;;;6.84;100.00;99582.81;5094048;28;19922;-93
2023/10/26 07:11:58;;;;;;;;;;;;;;;6.87;100.00;99567.13;5103170;28;19915;-93
2023/10/26 07:20:50;;;;;;;;;;;;;;;7.00;100.00;99572.13;5013683;28;20037;-92
2023/10/26 07:23:21;;;;;;;;;;;;;;;7.02;100.00;99571.19;5000718;28;19960;-93
2023/10/26 07:26:03;;;;;;;;;;;;;;;7.04;100.00;99568.56;5006250;28;19982;-93
2023/10/26 07:28:28;;;;;;;;;;;;;;;7.03;100.00;99577.28;4993044;28;19918;-93
2023/10/26 07:30:58;;;;;;;;;;;;;;;7.02;100.00;99573.81;5005581;28;19917;-93
2023/10/26 07:33:27;;;;;;;;;;;;;;;7.02;100.00;99565.13;5066887;28;19965;-93
2023/10/26 07:35:55;;;;;;;;;;;;;;;7.02;100.00;99558.16;5104766;28;20351;-93
2023/10/26 07:38:26;;;;;;;;;;;;;;;7.06;100.00;99567.66;5101269;28;19912;-93
2023/10/26 07:40:56;;;;;;;;;;;;;;;7.09;100.00;99558.94;5084501;28;19915;-93
2023/10/26 07:43:22;;;;;;;;;;;;;;;7.15;100.00;99557.97;5104499;28;19967;-93
2023/10/26 07:45:51;;;;;;;;;;;;;;;7.20;100.00;99549.19;5103091;28;20068;-93
2023/10/26 07:48:17;;;;;;;;;;;;;;;7.29;100.00;99556.81;5100752;28;20351;-93
2023/10/26 07:50:52;;;;;;;;;;;;;;;7.40;100.00;99560.97;5099923;28;20014;-93
2023/10/26 07:53:20;;;;;;;;;;;;;;;7.52;100.00;99558.13;5084145;28;19920;-93
2023/10/26 07:55:58;;;;;;;;;;;;;;;;;;;;;
2023/10/26 07:58:25;;;;;;;;;;;;;;;7.87;100.00;99576.53;5125423;28;19983;-93
2023/10/26 08:06:59;;;;;;;;;;;;;;;7.76;100.00;99588.06;5121988;28;20362;-94
2023/10/26 08:09:28;;;;;;;;;;;;;;;7.77;100.00;99586.31;5086607;28;19916;-94
2023/10/26 08:12:05;;;;;;;;;;;;;;;7.86;100.00;99590.47;5108257;28;19993;-94
2023/10/26 08:17:40;;;;;;;;;;;;;;;8.00;100.00;99608.44;5117797;28;20390;-92
2023/10/26 08:23:08;;;;;;;;;;;;;;;7.85;100.00;99601.81;5119870;28;19962;-92
2023/10/26 08:35:15;;;;;;;;;;;;;;;7.90;100.00;99623.41;5023720;28;19936;-93
2023/10/26 08:47:43;;;;;;;;;;;;;;;7.86;100.00;99614.81;4858993;29;19973;-92
2023/10/26 09:22:08;;;;;;;;;;;;;;;;;;;;;
2023/10/26 09:37:36;;;;;;;;;;;;;;;8.52;100.00;99580.34;4954872;29;20053;-94
2023/10/26 09:58:41;;;;;;;;;;;;;;;8.72;100.00;99583.38;5032162;28;20424;-92
2023/10/26 10:01:27;;;;;;;;;;;;;;;8.61;100.00;99578.41;5032146;28;20300;-92
2023/10/26 10:04:21;;;;;;;;;;;;;;;;;;;;;
2023/10/26 10:07:06;;;;;;;;;;;;;;;8.86;100.00;99579.56;5057371;28;20101;-92
2023/10/26 10:25:17;;;;;;;;;;;;;;;9.57;100.00;99573.31;5105805;28;19923;-93
2023/10/26 10:43:40;;;;;;;;;;;;;;;9.66;100.00;99538.19;4967399;28;19973;-93
2023/10/26 10:46:28;;;;;;;;;;;;;;;9.65;100.00;99533.88;5089522;28;20339;-93
2023/10/26 10:49:09;;;;;;;;;;;;;;;9.59;100.00;99534.91;5095738;28;19919;-93
2023/10/26 10:54:37;;;;;;;;;;;;;;;9.59;100.00;99534.91;5095160;28;19927;-93
2023/10/26 10:57:27;;;;;;;;;;;;;;;9.57;100.00;99535.84;5098588;28;19915;-93
2023/10/26 11:00:10;;;;;;;;;;;;;;;9.56;100.00;99532.38;5082633;28;19924;-93
2023/10/26 11:02:45;;;;;;;;;;;;;;;9.52;100.00;99531.63;5097870;28;19919;-93
2023/10/26 11:05:34;;;;;;;;;;;;;;;9.49;100.00;99513.38;5093003;28;19916;-94
2023/10/26 11:08:01;;;;;;;;;;;;;;;9.45;100.00;99509.16;5096197;28;20270;-95
2023/10/26 11:13:25;;;;;;;;;;;;;;;9.53;100.00;99515.00;5090588;28;19955;-95
2023/10/26 11:15:57;;;;;;;;;;;;;;;9.63;100.00;99509.53;5099155;28;19912;-94
2023/10/26 11:18:30;;;;;;;;;;;;;;;9.69;100.00;99501.50;5103049;28;19912;-94
2023/10/26 11:27:29;;;;;;;;;;;;;;;9.95;100.00;99519.00;5100064;28;20007;-94
2023/10/26 11:30:08;;;;;;;;;;;;;;;10.01;100.00;99517.97;5096733;28;20287;-93
2023/10/26 11:32:46;;;;;;;;;;;;;;;10.06;100.00;99503.00;5080698;28;19927;-94
2023/10/26 11:38:16;;;;;;;;;;;;;;;10.18;100.00;99518.31;5098596;28;19973;-94
2023/10/26 11:41:02;;;;;;;;;;;;;;;10.42;100.00;99515.00;5095971;28;19912;-94
2023/10/26 11:43:40;;;;;;;;;;;;;;;10.75;100.00;99507.78;5094415;28;19916;-94
2023/10/26 11:49:12;;;;;;;;;;;;;;;11.25;100.00;99510.41;5095910;28;19917;-94
2023/10/26 11:55:15;;;;;;;;;;;;;;;11.41;100.00;99508.09;5094533;28;20022;-93
2023/10/26 11:57:46;;;;;;;;;;;;;;;11.55;100.00;99507.59;5093774;28;19912;-93
2023/10/26 12:00:12;;;;;;;;;;;;;;;11.81;100.00;99502.25;5091696;28;20050;-93
2023/10/26 12:02:38;;;;;;;;;;;;;;;11.91;100.00;99487.84;5091837;28;19916;-94
2023/10/26 12:05:15;;;;;;;;;;;;;;;11.95;100.00;99486.84;5092325;28;19912;-93
2023/10/26 12:07:40;;;;;;;;;;;;;;;11.85;100.00;99493.34;5093467;28;19916;-92
2023/10/26 12:10:06;;;;;;;;;;;;;;;11.72;100.00;99496.47;5094410;28;19919;-93
2023/10/26 12:12:39;;;;;;;;;;;;;;;11.55;100.00;99499.72;5094912;28;19916;-94
2023/10/26 12:21:17;;;;;;;;;;;;;;;11.49;100.00;99499.91;5048009;28;20320;-93
2023/10/26 12:23:45;;;;;;;;;;;;;;;11.49;100.00;99501.69;5044942;28;19913;-94
2023/10/26 12:26:33;;;;;;;;;;;;;;;11.50;100.00;99496.41;5032341;28;19929;-93
2023/10/26 12:29:29;;;;;;;;;;;;;;;;;;;;;
2023/10/26 12:32:13;;;;;;;;;;;;;;;11.63;100.00;99483.66;5050406;28;19955;-94
2023/10/26 12:37:43;;;;;;;;;;;;;;;11.56;100.00;99479.56;5044325;28;19920;-94
2023/10/26 12:40:44;;;;;;;;;;;;;;;11.72;100.00;99485.97;5046351;28;19997;-93
2023/10/26 12:43:10;;;;;;;;;;;;;;;11.72;100.00;99482.47;4943403;29;19963;-93
2023/10/26 12:48:43;;;;;;;;;;;;;;;11.89;100.00;99453.78;4946200;29;20005;-93
2023/10/26 12:54:21;;;;;;;;;;;;;;;12.82;100.00;99455.28;4950408;28;19969;-93
2023/10/26 12:56:52;;;;;;;;;;;;;;;13.42;100.00;99463.19;4987301;28;19914;-94
2023/10/26 12:59:50;;;;;;;;;;;;;;;14.63;100.00;99457.47;4987227;28;19922;-93
2023/10/26 13:02:18;;;;;;;;;;;;;;;15.47;86.79;99468.00;4966426;28;19961;-92
2023/10/26 13:04:54;;;;;;;;;;;;;;;15.16;88.86;99467.03;4992304;28;19914;-93
2023/10/26 13:07:46;;;;;;;;;;;;;;;14.44;88.04;99452.22;5026286;28;19921;-93
2023/10/26 13:10:21;;;;;;;;;;;;;;;;;;;;;
2023/10/26 13:13:12;;;;;;;;;;;;;;;13.18;92.46;99444.91;5043747;28;19984;-93
2023/10/26 13:28:12;;;;;;;;;;;;;;;11.50;97.99;99443.94;5036491;28;19924;-94
2023/10/26 13:30:43;;;;;;;;;;;;;;;11.48;98.89;99453.63;5016897;28;19975;-93
2023/10/26 13:33:14;;;;;;;;;;;;;;;11.51;98.76;99450.91;5018766;28;19913;-94
2023/10/26 13:38:42;;;;;;;;;;;;;;;11.52;98.12;99464.84;5046351;28;20400;-95
2023/10/26 13:41:16;;;;;;;;;;;;;;;11.49;99.00;99454.47;5040142;28;19917;-94
2023/10/26 13:44:02;;;;;;;;;;;;;;;11.32;98.04;99455.97;5083632;28;20378;-94
2023/10/26 13:50:00;;;;;;;;;;;;;;;11.11;100.00;99456.75;5097651;28;19920;-95
2023/10/26 13:52:31;;;;;;;;;;;;;;;11.04;100.00;99462.22;5096973;28;19943;-93
2023/10/26 13:54:57;;;;;;;;;;;;;;;10.97;100.00;99457.25;5097411;28;19912;-93
2023/10/26 13:57:32;;;;;;;;;;;;;;;10.86;100.00;99447.13;5095092;28;19985;-94
2023/10/26 14:06:26;;;;;;;;;;;;;;;10.81;100.00;99438.59;5115090;28;19993;-95
2023/10/26 14:12:01;;;;;;;;;;;;;;;10.83;100.00;99436.75;5116004;28;20235;-96
2023/10/26 14:17:36;;;;;;;;;;;;;;;10.87;100.00;99431.34;5115624;28;20413;-95
2023/10/26 14:26:16;;;;;;;;;;;;;;;10.92;100.00;99415.50;5114744;28;19934;-93
2023/10/26 14:29:02;;;;;;;;;;;;;;;10.96;100.00;99418.84;5080227;28;19922;-94
2023/10/26 14:31:42;;;;;;;;;;;;;;;10.97;100.00;99412.69;5095439;28;19915;-94
2023/10/26 14:37:16;;;;;;;;;;;;;;;10.96;100.00;99413.59;5117615;28;19995;-95
2023/10/26 14:39:50;;;;;;;;;;;;;;;10.94;100.00;99423.28;5080561;28;20354;-94
2023/10/26 14:55:02;;;;;;;;;;;;;;;10.84;100.00;99389.53;4898348;28;20391;-95
2023/10/26 14:58:07;;;;;;;;;;;;;;;;;;;;;
2023/10/26 15:19:39;;;;;;;;;;;;;;;10.86;100.00;99368.50;4976265;28;20017;-95
2023/10/26 15:22:47;;;;;;;;;;;;;;;;;;;;;
2023/10/26 15:36:52;;;;;;;;;;;;;;;10.79;100.00;99360.03;5088804;28;19989;-70
2023/10/26 15:39:19;;;;;;;;;;;;;;;10.77;100.00;99347.91;5072931;28;19955;-69
2023/10/26 15:41:44;;;;;;;;;;;;;;;10.75;100.00;99346.19;5070962;28;19924;-69
2023/10/26 15:44:10;;;;;;;;;;;;;;;10.73;100.00;99341.91;5061050;28;19920;-69
2023/10/26 15:46:35;;;;;;;;;;;;;;;10.70;100.00;99348.13;5057795;28;19924;-70
2023/10/26 15:49:05;;;;;;;;;;;;;;;10.69;100.00;99342.94;5071575;28;19942;-69
2023/10/26 15:51:30;;;;;;;;;;;;;;;10.66;100.00;99350.91;5070975;28;20376;-69
2023/10/26 15:53:56;;;;;;;;;;;;;;;10.62;100.00;99349.31;5061991;28;19931;-69
2023/10/26 15:56:21;;;;;;;;;;;;;;;10.61;100.00;99352.84;5072465;28;19916;-69
2023/10/26 15:58:46;;;;;;;;;;;;;;;10.59;100.00;99360.75;5069099;28;20340;-68
2023/10/26 16:01:12;;;;;;;;;;;;;;;10.57;100.00;99354.69;5062655;28;19958;-68
2023/10/26 16:03:37;;;;;;;;;;;;;;;10.55;100.00;99360.00;5067383;28;20418;-69
2023/10/26 16:06:04;;;;;;;;;;;;;;;10.60;100.00;99353.75;5075603;28;19922;-69
2023/10/26 16:08:29;;;;;;;;;;;;;;;10.53;100.00;99355.72;5071195;28;19916;-69
2023/10/26 16:10:55;;;;;;;;;;;;;;;10.51;100.00;99357.56;5076090;28;20380;-69
2023/10/26 16:13:20;;;;;;;;;;;;;;;10.51;100.00;99362.78;5058337;28;20333;-70
2023/10/26 16:15:45;;;;;;;;;;;;;;;10.54;100.00;99362.69;5074210;28;19928;-69
2023/10/26 16:18:10;;;;;;;;;;;;;;;10.54;100.00;99367.91;5075151;28;20003;-69
2023/10/26 16:20:36;;;;;;;;;;;;;;;10.48;100.00;99368.97;5072587;28;20018;-69
2023/10/26 16:23:01;;;;;;;;;;;;;;;10.49;100.00;99373.31;5059221;28;19954;-69
2023/10/26 16:25:29;;;;;;;;;;;;;;;10.51;100.00;99376.72;5062245;28;20009;-69
2023/10/26 16:27:54;;;;;;;;;;;;;;;10.53;100.00;99384.53;5066807;28;19951;-69
2023/10/26 16:30:20;;;;;;;;;;;;;;;10.49;100.00;99385.56;5059638;28;19917;-69
2023/10/26 16:32:45;;;;;;;;;;;;;;;10.46;100.00;99383.91;5062438;28;20403;-69
2023/10/26 16:35:10;;;;;;;;;;;;;;;10.47;100.00;99384.75;5058847;28;19924;-69
2023/10/26 16:37:36;;;;;;;;;;;;;;;10.48;100.00;99389.09;5055436;28;19927;-69
2023/10/26 16:40:01;;;;;;;;;;;;;;;10.42;100.00;99384.06;5064096;28;20363;-69
2023/10/26 16:42:26;;;;;;;;;;;;;;;10.40;100.00;99378.84;5059782;28;20017;-69
2023/10/26 16:44:51;;;;;;;;;;;;;;;10.36;100.00;99378.13;5068222;28;20279;-69
2023/10/26 16:47:17;;;;;;;;;;;;;;;10.35;100.00;99380.78;5058397;28;19981;-69
2023/10/26 16:49:42;;;;;;;;;;;;;;;10.34;100.00;99372.09;5078738;28;19916;-69
2023/10/26 16:52:07;;;;;;;;;;;;;;;10.31;100.00;99376.53;5054121;28;19958;-69
2023/10/26 16:54:33;;;;;;;;;;;;;;;10.30;100.00;99372.19;5064138;28;19923;-69
2023/10/26 16:56:58;;;;;;;;;;;;;;;10.30;100.00;99370.44;5067174;28;19930;-69
2023/10/26 16:59:23;;;;;;;;;;;;;;;10.31;100.00;99377.38;5073404;28;19984;-69
2023/10/26 17:01:49;;;;;;;;;;;;;;;10.23;100.00;99372.41;5061224;28;20280;-69
2023/10/26 17:04:14;;;;;;;;;;;;;;;10.20;100.00;99369.03;5057579;28;19924;-69
2023/10/26 17:06:39;;;;;;;;;;;;;;;10.18;100.00;99365.63;5052127;28;20354;-69
2023/10/26 17:09:04;;;;;;;;;;;;;;;10.18;100.00;99363.00;5081881;28;19957;-70
2023/10/26 17:11:30;;;;;;;;;;;;;;;10.18;100.00;99369.09;5069194;28;20431;-69
2023/10/26 17:13:55;;;;;;;;;;;;;;;10.16;100.00;99372.69;5057573;28;19916;-69
2023/10/26 17:16:20;;;;;;;;;;;;;;;10.13;100.00;99372.75;5055611;28;20123;-69
2023/10/26 17:18:46;;;;;;;;;;;;;;;10.10;100.00;99373.75;5070586;28;20027;-70
2023/10/26 17:21:11;;;;;;;;;;;;;;;10.09;100.00;99366.78;5049757;28;20245;-70
2023/10/26 17:23:36;;;;;;;;;;;;;;;10.09;100.00;99371.19;5054565;28;20390;-70
2023/10/26 17:26:02;;;;;;;;;;;;;;;10.10;100.00;99385.97;5067392;28;20067;-69
2023/10/26 17:28:27;;;;;;;;;;;;;;;10.09;100.00;99381.66;5073397;28;20263;-70
2023/10/26 17:30:53;;;;;;;;;;;;;;;10.09;100.00;99386.88;5080201;28;19935;-70
2023/10/26 17:33:18;;;;;;;;;;;;;;;10.07;100.00;99384.31;5075393;28;20340;-70
2023/10/26 17:35:47;;;;;;;;;;;;;;;10.06;100.00;99382.59;5074130;28;20284;-70
2023/10/26 17:38:12;;;;;;;;;;;;;;;10.05;100.00;99381.72;5075741;28;19944;-70
2023/10/26 17:40:38;;;;;;;;;;;;;;;10.04;100.00;99374.81;5058878;28;19963;-70
2023/10/26 17:43:04;;;;;;;;;;;;;;;10.03;100.00;99369.63;5076216;28;19970;-70
2023/10/26 17:45:30;;;;;;;;;;;;;;;10.02;100.00;99370.53;5075380;28;19916;-70
2023/10/26 17:47:55;;;;;;;;;;;;;;;9.99;100.00;99362.78;5058365;28;19924;-70
2023/10/26 17:50:20;;;;;;;;;;;;;;;9.97;100.00;99373.28;5059987;28;20355;-70
2023/10/26 17:52:46;;;;;;;;;;;;;;;9.97;100.00;99370.69;5073674;28;19936;-70
2023/10/26 17:55:13;;;;;;;;;;;;;;;9.95;100.00;99364.63;5056765;28;19928;-70
2023/10/26 17:57:38;;;;;;;;;;;;;;;9.92;100.00;99359.50;5053683;28;20018;-69
2023/10/26 18:00:04;;;;;;;;;;;;;;;9.90;100.00;99369.16;5053288;28;20314;-70
2023/10/26 18:02:32;;;;;;;;;;;;;;;9.87;100.00;99351.81;5067032;28;19920;-69
2023/10/26 18:04:57;;;;;;;;;;;;;;;9.88;100.00;99357.88;5052430;28;20367;-70
2023/10/26 18:07:23;;;;;;;;;;;;;;;9.86;100.00;99359.69;5066344;28;19967;-70
2023/10/26 18:09:48;;;;;;;;;;;;;;;9.85;100.00;99352.75;5053802;28;19981;-70
2023/10/26 18:12:16;;;;;;;;;;;;;;;9.85;100.00;99347.50;5071687;28;19928;-69
2023/10/26 18:14:41;;;;;;;;;;;;;;;9.85;100.00;99347.50;5074684;28;20036;-69
2023/10/26 18:17:07;;;;;;;;;;;;;;;9.83;100.00;99342.34;5070876;28;19999;-69